Time;durP1;ratioP1;P1;durP2;ratioP2;P2;SDS_P1;SDS_P2;PMS_P1;PMS_P2;Temp;Humidity;BMP_temperature;BMP_pressure;BME280_temperature;BME280_humidity;BME280_pressure;Samples;Min_cycle;Max_cycle;Signal;HPM_P1;HPM_P2
2022/05/28 00:01:09;;;;;;;;;;;;;;;27.29;23.06;101738.84;4446443;32;19957;-69
2022/05/28 00:03:34;;;;;;;;;;;;;;;26.67;23.92;101737.44;4443010;32;20382;-69
2022/05/28 00:06:00;;;;;;;;;;;;;;;26.67;24.07;101738.22;4441692;32;20001;-69
2022/05/28 00:08:25;;;;;;;;;;;;;;;26.81;23.95;101740.03;4443544;32;19953;-69
2022/05/28 00:10:54;;;;;;;;;;;;;;;27.16;23.52;101734.41;4445821;32;19988;-69
2022/05/28 00:13:19;;;;;;;;;;;;;;;27.33;23.37;101728.59;4442352;32;19993;-69
2022/05/28 00:15:45;;;;;;;;;;;;;;;27.28;23.34;101725.72;4444853;32;19978;-69
2022/05/28 00:18:11;;;;;;;;;;;;;;;26.95;23.84;101721.63;4441259;32;20427;-69
2022/05/28 00:20:37;;;;;;;;;;;;;;;27.27;23.47;101716.25;4442067;32;19987;-69
2022/05/28 00:23:04;;;;;;;;;;;;;;;26.88;23.86;101716.38;4445041;32;20018;-69
2022/05/28 00:25:29;;;;;;;;;;;;;;;27.52;23.01;101712.19;4442154;32;19992;-69
2022/05/28 00:27:55;;;;;;;;;;;;;;;27.27;23.21;101701.81;4443694;32;20095;-69
2022/05/28 00:30:21;;;;;;;;;;;;;;;27.59;22.91;101705.06;4438027;32;19994;-69
2022/05/28 00:32:46;;;;;;;;;;;;;;;27.72;22.85;101717.59;4431746;32;20023;-69
2022/05/28 00:35:15;;;;;;;;;;;;;;;27.84;22.51;101719.13;4435352;32;20325;-69
2022/05/28 00:37:41;;;;;;;;;;;;;;;27.20;23.41;101719.69;4434180;32;19972;-69
2022/05/28 00:40:10;;;;;;;;;;;;;;;27.91;22.53;101718.56;4436322;32;20000;-69
2022/05/28 00:42:35;;;;;;;;;;;;;;;27.71;22.68;101721.84;4435386;32;20294;-69
2022/05/28 00:45:01;;;;;;;;;;;;;;;27.43;23.13;101718.31;4434871;32;20306;-68
2022/05/28 00:47:27;;;;;;;;;;;;;;;27.66;22.69;101713.97;4432367;32;20335;-69
2022/05/28 00:49:53;;;;;;;;;;;;;;;27.44;23.14;101716.97;4434422;32;20015;-68
2022/05/28 00:52:21;;;;;;;;;;;;;;;27.42;22.99;101713.81;4429766;32;20338;-68
2022/05/28 00:54:47;;;;;;;;;;;;;;;27.60;23.05;101710.31;4434828;32;20030;-68
2022/05/28 00:57:15;;;;;;;;;;;;;;;27.03;23.71;101704.53;4433970;32;19957;-68
2022/05/28 00:59:41;;;;;;;;;;;;;;;27.29;23.51;101710.75;4432768;32;19992;-69
2022/05/28 01:02:15;;;;;;;;;;;;;;;26.97;23.98;101701.63;4435273;32;19969;-69
2022/05/28 01:04:47;;;;;;;;;;;;;;;27.14;23.75;101704.47;4432918;32;19961;-69
2022/05/28 01:10:07;;;;;;;;;;;;;;;27.76;23.50;101718.09;3952021;32;15742601;-69
2022/05/28 01:12:39;;;;;;;;;;;;;;;27.76;23.50;101718.09;4431845;32;20255;-69
2022/05/28 01:20:20;;;;;;;;;;;;;;;27.62;23.81;101710.56;3951906;32;15724296;-70
2022/05/28 01:23:06;;;;;;;;;;;;;;;27.62;23.81;101710.56;4435304;32;20001;-70
2022/05/28 01:28:24;;;;;;;;;;;;;;;27.88;23.48;101715.94;3957415;32;15725508;-69
2022/05/28 01:30:50;;;;;;;;;;;;;;;27.88;23.48;101715.94;4429950;32;19963;-69
2022/05/28 01:33:16;;;;;;;;;;;;;;;27.63;23.57;101709.25;4430268;32;19946;-69
2022/05/28 01:35:43;;;;;;;;;;;;;;;26.58;24.80;101700.12;4428608;32;19993;-69
2022/05/28 01:38:11;;;;;;;;;;;;;;;26.83;24.44;101696.16;4431397;32;20312;-69
2022/05/28 01:40:38;;;;;;;;;;;;;;;27.17;24.11;101698.41;4429777;32;19957;-69
2022/05/28 01:43:05;;;;;;;;;;;;;;;27.12;24.02;101701.34;4431993;32;20004;-69
2022/05/28 01:45:31;;;;;;;;;;;;;;;26.82;24.50;101709.03;4430773;32;20437;-69
2022/05/28 01:48:01;;;;;;;;;;;;;;;26.64;24.77;101698.06;4427483;32;19961;-69
2022/05/28 01:50:28;;;;;;;;;;;;;;;27.12;24.02;101696.31;4432077;32;19992;-69
2022/05/28 01:52:54;;;;;;;;;;;;;;;27.13;24.04;101706.56;4429326;32;19993;-69
2022/05/28 01:55:21;;;;;;;;;;;;;;;26.93;24.24;101704.00;4425056;32;20316;-69
2022/05/28 01:57:47;;;;;;;;;;;;;;;27.21;23.88;101703.91;4426570;32;20123;-69
2022/05/28 02:00:13;;;;;;;;;;;;;;;26.19;25.15;101703.03;4429543;32;19990;-69
2022/05/28 02:02:39;;;;;;;;;;;;;;;27.15;24.00;101711.81;4430780;32;19958;-69
2022/05/28 02:05:05;;;;;;;;;;;;;;;26.69;24.41;101698.03;4430301;32;20304;-69
2022/05/28 02:07:31;;;;;;;;;;;;;;;27.21;23.96;101701.81;4428961;32;20000;-69
2022/05/28 02:10:00;;;;;;;;;;;;;;;27.26;23.80;101699.44;4429390;32;20415;-69
2022/05/28 02:12:28;;;;;;;;;;;;;;;27.30;23.67;101699.97;4431135;32;20008;-69
2022/05/28 02:15:15;;;;;;;;;;;;;;;27.21;23.75;101698.91;4427931;32;19953;-69
2022/05/28 02:18:01;;;;;;;;;;;;;;;27.26;23.68;101691.56;4427265;32;20995;-69
2022/05/28 02:20:49;;;;;;;;;;;;;;;27.40;23.55;101699.13;4427022;32;19991;-69
2022/05/28 02:23:18;;;;;;;;;;;;;;;27.42;23.36;101699.38;4428113;32;20039;-69
2022/05/28 02:28:23;;;;;;;;;;;;;;;28.13;22.80;101714.72;3955440;32;15727650;-69
2022/05/28 02:30:50;;;;;;;;;;;;;;;28.13;22.80;101714.72;4435358;32;20045;-69
2022/05/28 02:33:16;;;;;;;;;;;;;;;27.41;23.39;101709.38;4433802;32;20405;-69
2022/05/28 02:35:41;;;;;;;;;;;;;;;27.28;23.44;101706.28;4436753;32;19972;-69
2022/05/28 02:38:07;;;;;;;;;;;;;;;27.28;23.40;101699.72;4437542;32;20116;-69
2022/05/28 02:40:32;;;;;;;;;;;;;;;27.69;23.04;101712.09;4437164;32;20015;-69
2022/05/28 02:42:58;;;;;;;;;;;;;;;27.06;23.56;101698.44;4436745;32;19961;-69
2022/05/28 02:45:23;;;;;;;;;;;;;;;27.60;23.08;101698.75;4437411;32;20362;-69
2022/05/28 02:47:49;;;;;;;;;;;;;;;27.53;22.95;101707.19;4433495;32;20418;-69
2022/05/28 02:50:14;;;;;;;;;;;;;;;27.64;22.79;101698.47;4436396;32;19968;-69
2022/05/28 02:52:40;;;;;;;;;;;;;;;27.70;22.82;101708.66;4438452;32;20443;-69
2022/05/28 02:55:06;;;;;;;;;;;;;;;27.60;22.86;101700.84;4435070;32;20282;-69
2022/05/28 02:57:31;;;;;;;;;;;;;;;27.51;22.92;101713.50;4436077;32;19992;-69
2022/05/28 02:59:57;;;;;;;;;;;;;;;27.32;22.94;101706.78;4433241;32;20334;-69
2022/05/28 03:02:26;;;;;;;;;;;;;;;27.49;22.90;101709.59;4435316;32;20011;-69
2022/05/28 03:04:52;;;;;;;;;;;;;;;27.54;22.82;101712.44;4435121;32;20041;-69
2022/05/28 03:07:17;;;;;;;;;;;;;;;27.69;22.59;101707.09;4435938;32;19980;-70
2022/05/28 03:09:43;;;;;;;;;;;;;;;27.79;22.53;101701.81;4436385;32;20021;-69
2022/05/28 03:12:09;;;;;;;;;;;;;;;27.56;22.85;101706.12;4436177;32;19949;-69
2022/05/28 03:14:36;;;;;;;;;;;;;;;27.75;22.50;101707.84;4433895;32;20432;-69
2022/05/28 03:17:02;;;;;;;;;;;;;;;27.29;23.01;101713.62;4434596;32;19997;-69
2022/05/28 03:19:27;;;;;;;;;;;;;;;27.43;22.91;101709.62;4434476;32;19953;-69
2022/05/28 03:21:53;;;;;;;;;;;;;;;27.17;23.04;101712.88;4436211;32;20020;-69
2022/05/28 03:24:18;;;;;;;;;;;;;;;27.18;23.22;101713.62;4436044;32;20355;-69
2022/05/28 03:26:44;;;;;;;;;;;;;;;27.05;23.32;101719.19;4435354;32;20011;-69
2022/05/28 03:29:09;;;;;;;;;;;;;;;27.09;23.31;101713.97;4432798;32;19989;-69
2022/05/28 03:31:35;;;;;;;;;;;;;;;27.45;22.91;101717.78;4437219;32;20350;-69
2022/05/28 03:34:00;;;;;;;;;;;;;;;27.07;23.45;101716.59;4434046;32;19969;-69
2022/05/28 03:36:26;;;;;;;;;;;;;;;27.30;23.08;101712.31;4435424;32;20332;-69
2022/05/28 03:38:52;;;;;;;;;;;;;;;27.49;22.94;101713.28;4430135;32;20008;-69
2022/05/28 03:41:18;;;;;;;;;;;;;;;27.46;22.98;101714.34;4425655;32;20372;-69
2022/05/28 03:43:44;;;;;;;;;;;;;;;27.50;22.91;101719.84;4426209;32;19996;-69
2022/05/28 03:46:29;;;;;;;;;;;;;;;27.41;22.88;101715.16;4425690;32;20375;-69
2022/05/28 03:48:57;;;;;;;;;;;;;;;27.37;23.10;101717.53;4426054;32;19957;-69
2022/05/28 03:51:23;;;;;;;;;;;;;;;27.40;23.06;101719.38;4427005;32;20040;-69
2022/05/28 03:53:49;;;;;;;;;;;;;;;27.47;23.12;101724.59;4424242;32;20013;-69
2022/05/28 03:56:14;;;;;;;;;;;;;;;27.11;23.49;101722.88;4423224;32;20007;-69
2022/05/28 03:58:40;;;;;;;;;;;;;;;27.50;23.14;101717.75;4422593;32;20000;-69
2022/05/28 04:01:06;;;;;;;;;;;;;;;27.72;22.93;101734.16;4424405;32;20006;-69
2022/05/28 04:03:31;;;;;;;;;;;;;;;26.77;24.06;101724.28;4425723;32;19985;-69
2022/05/28 04:05:57;;;;;;;;;;;;;;;27.60;23.07;101724.78;4425352;32;19973;-69
2022/05/28 04:08:23;;;;;;;;;;;;;;;27.61;23.16;101720.56;4424291;32;20330;-69
2022/05/28 04:10:49;;;;;;;;;;;;;;;27.70;22.99;101708.66;4423896;32;19956;-69
2022/05/28 04:13:14;;;;;;;;;;;;;;;27.71;23.05;101713.16;4425738;32;20454;-70
2022/05/28 04:15:40;;;;;;;;;;;;;;;27.78;23.01;101717.56;4423136;32;19956;-69
2022/05/28 04:18:07;;;;;;;;;;;;;;;27.16;23.80;101722.06;4417156;32;19980;-69
2022/05/28 04:20:34;;;;;;;;;;;;;;;27.93;22.89;101718.81;4423178;32;19989;-68
2022/05/28 04:22:59;;;;;;;;;;;;;;;27.97;22.76;101722.19;4425723;32;19954;-68
2022/05/28 04:25:25;;;;;;;;;;;;;;;28.00;22.77;101720.34;4423897;32;20256;-69
2022/05/28 04:27:51;;;;;;;;;;;;;;;28.15;22.77;101723.66;4422626;32;21508;-68
2022/05/28 04:30:16;;;;;;;;;;;;;;;27.59;23.36;101729.00;4425030;32;19971;-69
2022/05/28 04:32:42;;;;;;;;;;;;;;;27.85;22.93;101738.03;4425495;32;19953;-69
2022/05/28 04:35:08;;;;;;;;;;;;;;;28.07;22.79;101737.91;4424518;32;19965;-69
2022/05/28 04:37:34;;;;;;;;;;;;;;;28.16;22.57;101739.72;4424567;32;20353;-69
2022/05/28 04:39:59;;;;;;;;;;;;;;;28.07;22.53;101732.13;4423068;32;20017;-69
2022/05/28 04:42:25;;;;;;;;;;;;;;;28.10;22.75;101733.94;4421987;32;20000;-69
2022/05/28 04:44:50;;;;;;;;;;;;;;;28.37;22.51;101723.44;4424888;32;19971;-68
2022/05/28 04:47:16;;;;;;;;;;;;;;;28.12;22.45;101731.31;4424781;32;19972;-68
2022/05/28 04:49:42;;;;;;;;;;;;;;;28.02;22.84;101735.84;4423525;32;19971;-68
2022/05/28 04:52:07;;;;;;;;;;;;;;;28.29;22.55;101729.03;4426019;32;20015;-68
2022/05/28 04:54:33;;;;;;;;;;;;;;;28.32;22.43;101733.75;4425480;32;20085;-68
2022/05/28 04:56:58;;;;;;;;;;;;;;;28.57;22.18;101740.44;4425131;32;20023;-68
2022/05/28 04:59:24;;;;;;;;;;;;;;;28.56;22.22;101741.75;4422478;32;21010;-68
2022/05/28 05:01:50;;;;;;;;;;;;;;;28.53;22.14;101737.81;4423915;32;20244;-68
2022/05/28 05:04:15;;;;;;;;;;;;;;;28.68;21.89;101731.63;4424793;32;20370;-68
2022/05/28 05:06:41;;;;;;;;;;;;;;;28.59;22.05;101743.59;4423441;32;20062;-68
2022/05/28 05:09:06;;;;;;;;;;;;;;;27.73;22.96;101742.31;4426495;32;20347;-68
2022/05/28 05:11:32;;;;;;;;;;;;;;;28.63;22.09;101741.94;4423732;32;20513;-68
2022/05/28 05:13:58;;;;;;;;;;;;;;;28.91;21.81;101745.34;4425765;32;19994;-68
2022/05/28 05:16:23;;;;;;;;;;;;;;;28.46;22.11;101743.41;4424425;32;19993;-68
2022/05/28 05:18:49;;;;;;;;;;;;;;;28.89;21.66;101739.31;4424011;32;19953;-69
2022/05/28 05:21:15;;;;;;;;;;;;;;;28.31;22.27;101746.69;4422807;32;19971;-68
2022/05/28 05:23:41;;;;;;;;;;;;;;;28.91;21.86;101747.47;4424371;32;20354;-68
2022/05/28 05:26:15;;;;;;;;;;;;;;;28.61;22.10;101743.81;4424853;32;20049;-68
2022/05/28 05:28:41;;;;;;;;;;;;;;;28.79;21.91;101743.09;4424281;32;19992;-69
2022/05/28 05:31:07;;;;;;;;;;;;;;;29.22;21.53;101748.97;4423479;32;20000;-69
2022/05/28 05:33:33;;;;;;;;;;;;;;;29.42;21.42;101751.38;4423066;32;20008;-68
2022/05/28 05:35:59;;;;;;;;;;;;;;;29.10;21.60;101750.44;4423875;32;20013;-68
2022/05/28 05:38:24;;;;;;;;;;;;;;;28.98;21.77;101752.66;4423841;32;20008;-68
2022/05/28 05:40:51;;;;;;;;;;;;;;;29.08;21.63;101762.56;4424068;32;20004;-69
2022/05/28 05:43:17;;;;;;;;;;;;;;;29.27;21.52;101763.44;4424640;32;19952;-69
2022/05/28 05:45:42;;;;;;;;;;;;;;;29.49;21.13;101757.34;4424085;32;19998;-68
2022/05/28 05:48:08;;;;;;;;;;;;;;;29.72;21.10;101757.84;4423432;32;20049;-68
2022/05/28 05:50:34;;;;;;;;;;;;;;;29.74;21.04;101760.97;4422721;32;20049;-68
2022/05/28 05:52:59;;;;;;;;;;;;;;;29.88;20.79;101760.50;4424767;32;19949;-68
2022/05/28 05:55:25;;;;;;;;;;;;;;;29.78;20.89;101750.62;4421352;32;19973;-68
2022/05/28 05:57:50;;;;;;;;;;;;;;;29.85;20.84;101752.13;4421288;32;19975;-69
2022/05/28 06:00:16;;;;;;;;;;;;;;;29.66;20.84;101757.16;4422751;32;20027;-69
2022/05/28 06:02:42;;;;;;;;;;;;;;;29.97;20.70;101759.34;4423495;32;19965;-69
2022/05/28 06:05:08;;;;;;;;;;;;;;;30.18;20.52;101763.22;4424090;32;20363;-69
2022/05/28 06:07:34;;;;;;;;;;;;;;;29.62;21.08;101762.47;4423282;32;19993;-69
2022/05/28 06:09:59;;;;;;;;;;;;;;;29.67;20.83;101767.41;4423683;32;20248;-68
2022/05/28 06:12:25;;;;;;;;;;;;;;;29.84;20.85;101756.34;4424355;32;20017;-68
2022/05/28 06:14:51;;;;;;;;;;;;;;;30.01;20.78;101762.72;4423191;32;20412;-68
2022/05/28 06:17:17;;;;;;;;;;;;;;;29.72;20.91;101749.13;4425391;32;19954;-68
2022/05/28 06:19:43;;;;;;;;;;;;;;;28.97;21.66;101759.78;4422148;32;19995;-68
2022/05/28 06:22:08;;;;;;;;;;;;;;;29.58;20.96;101767.78;4422408;32;20370;-69
2022/05/28 06:24:34;;;;;;;;;;;;;;;29.66;20.82;101769.53;4421985;32;20052;-69
2022/05/28 06:27:00;;;;;;;;;;;;;;;28.43;22.16;101764.72;4422690;32;19957;-69
2022/05/28 06:29:27;;;;;;;;;;;;;;;29.75;20.96;101768.34;4424385;32;19965;-69
2022/05/28 06:31:52;;;;;;;;;;;;;;;29.73;21.06;101776.84;4421681;32;20000;-69
2022/05/28 06:34:18;;;;;;;;;;;;;;;30.16;20.51;101768.81;4423533;32;19957;-69
2022/05/28 06:36:44;;;;;;;;;;;;;;;30.19;20.61;101762.69;4420106;32;20250;-69
2022/05/28 06:39:10;;;;;;;;;;;;;;;30.26;20.39;101764.19;4424159;32;19949;-69
2022/05/28 06:41:35;;;;;;;;;;;;;;;30.40;20.22;101765.81;4425052;32;19961;-69
2022/05/28 06:44:01;;;;;;;;;;;;;;;29.98;20.72;101769.63;4422753;32;20039;-68
2022/05/28 06:46:27;;;;;;;;;;;;;;;30.62;20.10;101763.28;4424650;32;21130;-68
2022/05/28 06:48:52;;;;;;;;;;;;;;;29.89;20.78;101765.00;4424162;32;19953;-69
2022/05/28 06:51:18;;;;;;;;;;;;;;;30.33;20.49;101773.03;4423932;32;20573;-69
2022/05/28 06:53:46;;;;;;;;;;;;;;;29.78;20.86;101758.53;4423494;32;20393;-69
2022/05/28 06:56:11;;;;;;;;;;;;;;;29.46;21.17;101760.53;4419507;32;19966;-68
2022/05/28 06:58:38;;;;;;;;;;;;;;;29.83;20.91;101763.50;4422285;32;20295;-69
2022/05/28 07:01:06;;;;;;;;;;;;;;;30.54;20.22;101761.59;4424539;32;20307;-69
2022/05/28 07:03:32;;;;;;;;;;;;;;;30.94;19.90;101759.56;4420652;32;20440;-69
2022/05/28 07:05:58;;;;;;;;;;;;;;;30.70;19.84;101760.50;4420285;32;19993;-69
2022/05/28 07:08:24;;;;;;;;;;;;;;;30.86;19.73;101759.44;4422992;32;20302;-69
2022/05/28 07:10:51;;;;;;;;;;;;;;;31.36;19.37;101765.13;4422545;32;20009;-69
2022/05/28 07:13:20;;;;;;;;;;;;;;;31.06;19.60;101764.63;4423486;32;19989;-68
2022/05/28 07:15:46;;;;;;;;;;;;;;;31.32;19.44;101770.47;4427749;32;19990;-69
2022/05/28 07:18:12;;;;;;;;;;;;;;;31.51;19.08;101770.34;4426723;32;21074;-68
2022/05/28 07:20:37;;;;;;;;;;;;;;;31.74;18.95;101775.13;4426048;32;21449;-68
2022/05/28 07:23:20;;;;;;;;;;;;;;;32.48;18.46;101785.34;4426210;32;19989;-68
2022/05/28 07:25:46;;;;;;;;;;;;;;;31.94;18.74;101783.16;4424413;32;20008;-69
2022/05/28 07:28:43;;;;;;;;;;;;;;;32.36;18.47;101784.84;4426997;32;21129;-69
2022/05/28 07:30:58;;;;;;;;;;;;;;;32.59;18.31;101777.09;4422866;32;19984;-69
2022/05/28 07:33:25;;;;;;;;;;;;;;;32.75;18.10;101788.88;4423317;32;20008;-69
2022/05/28 07:35:52;;;;;;;;;;;;;;;32.75;17.98;101789.66;4426405;32;20179;-70
2022/05/28 07:38:17;;;;;;;;;;;;;;;33.11;17.71;101790.59;4424462;32;20044;-69
2022/05/28 07:40:43;;;;;;;;;;;;;;;32.92;17.95;101790.06;4424685;32;19949;-69
2022/05/28 07:43:10;;;;;;;;;;;;;;;32.90;18.00;101792.75;4425449;32;19989;-69
2022/05/28 07:45:36;;;;;;;;;;;;;;;32.77;17.85;101789.87;4424834;32;20019;-69
2022/05/28 07:48:02;;;;;;;;;;;;;;;32.30;18.34;101787.06;4425918;32;20004;-69
2022/05/28 07:50:27;;;;;;;;;;;;;;;33.22;17.65;101783.66;4424210;32;20317;-69
2022/05/28 07:52:53;;;;;;;;;;;;;;;33.86;17.26;101787.31;4426628;32;20008;-69
2022/05/28 07:55:19;;;;;;;;;;;;;;;34.38;16.84;101801.38;4422650;32;20003;-69
2022/05/28 07:57:44;;;;;;;;;;;;;;;34.01;17.02;101802.00;4423217;32;20082;-69
2022/05/28 08:00:11;;;;;;;;;;;;;;;34.19;16.76;101795.84;4426137;32;20052;-69
2022/05/28 08:02:41;;;;;;;;;;;;;;;34.74;16.27;101789.50;4424296;32;20000;-69
2022/05/28 08:05:06;;;;;;;;;;;;;;;35.06;16.04;101795.59;4424457;32;20022;-69
2022/05/28 08:07:32;;;;;;;;;;;;;;;34.88;16.05;101791.69;4423442;32;20585;-70
2022/05/28 08:09:58;;;;;;;;;;;;;;;35.25;15.86;101796.72;4426287;32;19961;-69
2022/05/28 08:12:24;;;;;;;;;;;;;;;35.69;15.52;101803.88;4423268;32;19997;-69
2022/05/28 08:14:50;;;;;;;;;;;;;;;35.93;15.34;101809.09;4423104;32;19989;-69
2022/05/28 08:17:17;;;;;;;;;;;;;;;34.26;16.42;101800.94;4422785;32;19985;-69
2022/05/28 08:19:42;;;;;;;;;;;;;;;35.10;15.83;101807.69;4424444;32;19967;-69
2022/05/28 08:24:53;;;;;;;;;;;;;;;34.95;16.15;101807.69;4424184;32;20363;-69
2022/05/28 08:27:18;;;;;;;;;;;;;;;34.76;16.27;101799.28;4422918;32;20071;-69
2022/05/28 08:29:44;;;;;;;;;;;;;;;35.62;15.62;101800.97;4426349;32;20001;-69
2022/05/28 08:32:12;;;;;;;;;;;;;;;36.01;15.38;101795.16;4427007;32;20365;-69
2022/05/28 08:34:38;;;;;;;;;;;;;;;36.19;15.00;101796.81;4424969;32;20393;-69
2022/05/28 08:37:03;;;;;;;;;;;;;;;34.87;16.18;101795.97;4426126;32;19969;-69
2022/05/28 08:39:30;;;;;;;;;;;;;;;35.79;15.56;101789.37;4423938;32;20474;-69
2022/05/28 08:41:57;;;;;;;;;;;;;;;35.74;15.51;101787.44;4425351;32;19961;-69
2022/05/28 08:44:26;;;;;;;;;;;;;;;36.03;15.28;101785.78;4424338;32;20007;-69
2022/05/28 08:46:54;;;;;;;;;;;;;;;35.53;15.52;101781.88;4423931;32;19968;-69
2022/05/28 08:49:23;;;;;;;;;;;;;;;35.52;15.53;101779.53;4425379;32;20008;-69
2022/05/28 08:51:52;;;;;;;;;;;;;;;34.96;16.04;101779.97;4424921;32;19997;-69
2022/05/28 08:54:35;;;;;;;;;;;;;;;34.78;16.30;101784.84;4424636;32;19995;-70
2022/05/28 08:57:03;;;;;;;;;;;;;;;34.99;15.95;101770.03;4415432;32;20373;-69
2022/05/28 08:59:49;;;;;;;;;;;;;;;35.58;15.48;101775.00;4422766;32;20290;-68
2022/05/28 09:02:18;;;;;;;;;;;;;;;34.64;15.89;101777.62;4424731;32;20029;-69
2022/05/28 09:04:44;;;;;;;;;;;;;;;34.48;16.08;101781.12;4424755;32;19950;-69
2022/05/28 09:07:11;;;;;;;;;;;;;;;35.21;15.66;101784.62;4423032;32;20001;-69
2022/05/28 09:09:40;;;;;;;;;;;;;;;35.21;15.42;101781.72;4422556;32;20243;-69
2022/05/28 09:12:08;;;;;;;;;;;;;;;35.80;15.13;101780.03;4423112;32;20282;-70
2022/05/28 09:14:37;;;;;;;;;;;;;;;36.05;14.94;101777.94;4422979;32;20001;-70
2022/05/28 09:19:44;;;;;;;;;;;;;;;37.50;13.72;101790.88;3951380;32;15749231;-69
2022/05/28 09:22:10;;;;;;;;;;;;;;;37.50;13.72;101790.88;4416186;32;20045;-70
2022/05/28 09:24:36;;;;;;;;;;;;;;;37.61;13.52;101794.06;4427860;32;20719;-69
2022/05/28 09:27:21;;;;;;;;;;;;;;;37.71;13.65;101791.25;4428568;32;20307;-71
2022/05/28 09:30:07;;;;;;;;;;;;;;;37.87;13.37;101789.69;4431291;32;20004;-69
2022/05/28 09:35:31;;;;;;;;;;;;;;;39.61;12.66;101780.34;3963114;31;15728023;-69
2022/05/28 09:38:02;;;;;;;;;;;;;;;39.61;12.66;101780.34;4442977;32;19961;-70
2022/05/28 09:40:37;;;;;;;;;;;;;;;39.25;12.73;101794.41;4441245;32;20013;-69
2022/05/28 09:48:28;;;;;;;;;;;;;;;38.60;13.12;101782.59;3953358;32;15723372;-70
2022/05/28 09:50:55;;;;;;;;;;;;;;;38.60;13.12;101782.59;4430409;32;20011;-69
2022/05/28 09:56:20;;;;;;;;;;;;;;;38.52;13.09;101787.00;4429180;32;19997;-70
2022/05/28 09:58:46;;;;;;;;;;;;;;;38.09;13.35;101779.78;4430723;32;19949;-69
2022/05/28 10:06:33;;;;;;;;;;;;;;;39.94;12.30;101774.78;4431139;32;19964;-70
2022/05/28 10:09:11;;;;;;;;;;;;;;;39.92;12.11;101776.78;4431830;32;20404;-70
2022/05/28 10:11:47;;;;;;;;;;;;;;;40.68;11.47;101773.66;4431797;32;20022;-69
2022/05/28 10:14:15;;;;;;;;;;;;;;;40.42;11.70;101775.44;4430591;32;20012;-69
2022/05/28 10:16:41;;;;;;;;;;;;;;;39.64;12.10;101763.62;4428164;32;20009;-71
2022/05/28 10:19:15;;;;;;;;;;;;;;;39.80;12.00;101770.72;4431897;32;19999;-70
2022/05/28 10:21:47;;;;;;;;;;;;;;;40.25;11.60;101780.78;4431338;32;19981;-68
2022/05/28 10:24:17;;;;;;;;;;;;;;;38.81;12.41;101768.09;4430583;32;20299;-69
2022/05/28 10:26:46;;;;;;;;;;;;;;;38.99;12.22;101769.56;4427687;32;20740;-69
2022/05/28 10:29:17;;;;;;;;;;;;;;;39.32;12.24;101761.09;4430420;32;19977;-69
2022/05/28 10:31:44;;;;;;;;;;;;;;;40.26;11.55;101755.78;4428302;32;19988;-69
2022/05/28 10:34:21;;;;;;;;;;;;;;;40.81;11.33;101758.38;4429327;32;19961;-70
2022/05/28 10:36:46;;;;;;;;;;;;;;;41.40;10.84;101761.09;4428084;32;20043;-71
2022/05/28 10:39:13;;;;;;;;;;;;;;;41.47;10.88;101762.28;4428913;32;19967;-70
2022/05/28 10:41:42;;;;;;;;;;;;;;;41.15;10.84;101751.97;4431109;32;19964;-70
2022/05/28 10:44:09;;;;;;;;;;;;;;;41.05;10.53;101751.22;4431582;32;19953;-70
2022/05/28 10:46:55;;;;;;;;;;;;;;;40.70;11.00;101744.31;4431796;32;20011;-70
2022/05/28 10:49:41;;;;;;;;;;;;;;;40.83;11.13;101753.38;4411332;32;20020;-70
2022/05/28 11:00:02;;;;;;;;;;;;;;;40.87;10.98;101744.03;3951492;32;15733547;-70
2022/05/28 11:05:23;;;;;;;;;;;;;;;39.14;12.36;101748.66;3951400;32;15727667;-69
2022/05/28 11:07:52;;;;;;;;;;;;;;;39.14;12.36;101748.66;4432909;32;20008;-69
2022/05/28 11:10:37;;;;;;;;;;;;;;;38.30;12.86;101733.03;4434994;32;20062;-69
2022/05/28 11:18:31;;;;;;;;;;;;;;;39.75;12.22;101735.69;3952168;32;15723634;-69
2022/05/28 11:23:55;;;;;;;;;;;;;;;42.15;10.31;101732.25;3967019;31;15716210;-70
2022/05/28 11:29:05;;;;;;;;;;;;;;;42.46;9.87;101729.06;3950564;32;15725952;-70
2022/05/28 11:31:38;;;;;;;;;;;;;;;42.46;9.87;101729.06;4430100;32;20059;-70
2022/05/28 11:34:10;;;;;;;;;;;;;;;42.57;9.52;101735.00;4432237;32;19987;-70
2022/05/28 11:36:40;;;;;;;;;;;;;;;41.97;9.58;101733.22;4429599;32;19952;-70
2022/05/28 11:39:11;;;;;;;;;;;;;;;42.01;9.60;101722.44;4426018;32;19992;-70
2022/05/28 11:41:45;;;;;;;;;;;;;;;40.95;10.35;101721.00;4430013;32;19999;-70
2022/05/28 11:46:51;;;;;;;;;;;;;;;41.44;9.76;101726.69;3963044;31;15717508;-70
2022/05/28 11:52:17;;;;;;;;;;;;;;;40.64;10.08;101715.06;4444705;32;19949;-69
2022/05/28 11:54:46;;;;;;;;;;;;;;;40.84;10.13;101715.75;4446594;32;20327;-69
2022/05/28 11:57:20;;;;;;;;;;;;;;;40.51;10.55;101712.66;4445475;32;19996;-69
2022/05/28 11:59:46;;;;;;;;;;;;;;;40.35;10.62;101714.47;4444427;32;19961;-69
2022/05/28 12:02:14;;;;;;;;;;;;;;;39.81;10.97;101712.56;4441374;32;20006;-69
2022/05/28 12:04:41;;;;;;;;;;;;;;;39.77;11.15;101712.22;4443010;32;20300;-69
2022/05/28 12:09:46;;;;;;;;;;;;;;;42.69;9.66;101712.09;3905437;32;15722228;-70
2022/05/28 12:12:20;;;;;;;;;;;;;;;42.69;9.66;101712.09;4377687;32;19955;-70
2022/05/28 12:14:48;;;;;;;;;;;;;;;43.10;9.35;101707.28;4373366;32;20043;-70
2022/05/28 12:19:59;;;;;;;;;;;;;;;42.57;9.66;101706.09;3952190;32;15722635;-70
2022/05/28 12:22:32;;;;;;;;;;;;;;;42.57;9.66;101705.38;4429116;32;20007;-70
2022/05/28 12:25:03;;;;;;;;;;;;;;;42.48;9.66;101694.44;4427967;32;19964;-71
2022/05/28 12:27:49;;;;;;;;;;;;;;;42.66;9.53;101700.72;4425519;32;20219;-69
2022/05/28 12:33:17;;;;;;;;;;;;;;;44.00;8.86;101696.31;3950272;32;15723614;-69
2022/05/28 12:38:40;;;;;;;;;;;;;;;43.18;9.31;101695.13;3942976;32;15725464;-70
2022/05/28 12:41:14;;;;;;;;;;;;;;;43.18;9.31;101695.13;4424221;32;19953;-70
2022/05/28 12:43:44;;;;;;;;;;;;;;;42.92;9.36;101688.34;4426600;32;20398;-71
2022/05/28 12:48:50;;;;;;;;;;;;;;;41.72;10.18;101686.47;3951384;32;15725165;-70
2022/05/28 12:51:35;;;;;;;;;;;;;;;41.72;10.18;101686.47;4428117;32;19961;-70
2022/05/28 12:54:02;;;;;;;;;;;;;;;40.56;10.74;101685.00;4416441;32;19974;-70
2022/05/28 12:56:40;;;;;;;;;;;;;;;40.35;10.80;101676.09;4430776;32;20653;-70
2022/05/28 13:02:03;;;;;;;;;;;;;;;40.31;10.70;101681.72;3949778;32;15728114;-70
2022/05/28 13:04:32;;;;;;;;;;;;;;;40.31;10.70;101681.72;4426007;32;20409;-70
2022/05/28 13:06:59;;;;;;;;;;;;;;;40.06;10.76;101672.44;4428898;32;20420;-70
2022/05/28 13:09:27;;;;;;;;;;;;;;;40.27;10.71;101674.75;4428807;32;19950;-70
2022/05/28 13:12:12;;;;;;;;;;;;;;;40.26;10.67;101676.91;4428706;32;19965;-70
2022/05/28 13:14:58;;;;;;;;;;;;;;;40.00;10.68;101672.00;4428851;32;20375;-70
2022/05/28 13:17:44;;;;;;;;;;;;;;;39.79;10.93;101674.88;4429404;32;19996;-70
2022/05/28 13:22:59;;;;;;;;;;;;;;;41.20;10.34;101677.75;3951805;32;15723636;-71
2022/05/28 13:25:37;;;;;;;;;;;;;;;41.20;10.34;101677.75;4434291;32;19953;-70
2022/05/28 13:30:43;;;;;;;;;;;;;;;41.72;10.16;101673.84;3952114;32;15724592;-70
2022/05/28 13:33:11;;;;;;;;;;;;;;;41.72;10.16;101673.84;4433691;32;19989;-70
2022/05/28 13:35:40;;;;;;;;;;;;;;;41.74;10.19;101679.91;4434579;32;19957;-69
2022/05/28 13:38:06;;;;;;;;;;;;;;;40.23;11.02;101666.34;4434621;32;20025;-70
2022/05/28 13:40:32;;;;;;;;;;;;;;;40.31;11.14;101661.06;4436611;32;20044;-70
2022/05/28 13:43:00;;;;;;;;;;;;;;;40.04;11.33;101656.81;4432579;32;19953;-70
2022/05/28 13:45:28;;;;;;;;;;;;;;;40.54;11.04;101651.59;4420123;32;20093;-70
2022/05/28 13:47:54;;;;;;;;;;;;;;;40.80;10.85;101657.19;4434384;32;19953;-70
2022/05/28 13:50:24;;;;;;;;;;;;;;;40.78;10.87;101665.94;4432366;32;20012;-70
2022/05/28 13:52:50;;;;;;;;;;;;;;;39.65;11.41;101656.91;4433422;32;19954;-70
2022/05/28 13:55:21;;;;;;;;;;;;;;;39.73;11.38;101653.78;4436360;32;19961;-70
2022/05/28 13:57:47;;;;;;;;;;;;;;;39.87;11.38;101648.94;4432406;32;19994;-70
2022/05/28 14:00:29;;;;;;;;;;;;;;;39.51;11.68;101658.78;4435864;32;20339;-70
2022/05/28 14:05:47;;;;;;;;;;;;;;;39.49;11.70;101654.91;3954195;32;15722582;-70
2022/05/28 14:08:16;;;;;;;;;;;;;;;39.49;11.70;101654.91;4421928;32;20378;-70